Time,TemperatureF,DewpointF,PressureIn,WindDirection,WindDirectionDegrees,WindSpeedMPH,WindSpeedGustMPH,Humidity,HourlyPrecipIn,Conditions,Clouds,dailyrainin,SolarRadiationWatts/m^2,SoftwareType,DateUTC
2013-07-19 00:00:00,74.0,74.0,29.99,South,182,3.0,-999.0,100,-99.99,,,-99.99,0.000000,,2013-07-19 04:00:00,
2013-07-19 00:52:00,74.0,74.0,29.99,South,182,3.0,-999.0,100,-99.99,,,-99.99,0.000000,,2013-07-19 04:52:00,
2013-07-19 04:00:00,74.0,69.0,29.94,South,185,4.0,-999.0,87,-99.99,,,-99.99,0.000000,,2013-07-19 08:00:00,
2013-07-19 05:00:00,73.0,69.0,29.93,South,191,5.0,-999.0,87,-99.99,,,-99.99,0.000000,,2013-07-19 09:00:00,
2013-07-19 06:00:00,72.0,69.0,29.92,South,174,5.0,-999.0,91,-99.99,,,-99.99,1.460000,,2013-07-19 10:00:00,
2013-07-19 07:00:00,79.0,70.0,29.93,SSW,203,5.0,-999.0,76,-99.99,,,-99.99,57.459999,,2013-07-19 11:00:00,
2013-07-19 08:00:00,82.0,72.0,29.93,SW,224,4.0,-999.0,72,-99.99,,,-99.99,205.399994,,2013-07-19 12:00:00,
2013-07-19 09:00:00,84.0,73.0,29.94,SW,219,5.0,-999.0,71,-99.99,,,-99.99,349.299988,,2013-07-19 13:00:00,
2013-07-19 10:00:00,86.0,74.0,29.93,SW,227,6.0,-999.0,67,-99.99,,,-99.99,509.899994,,2013-07-19 14:00:00,
2013-07-19 11:00:00,87.0,73.0,29.92,SW,236,8.0,-999.0,64,-99.99,,,-99.99,659.500000,,2013-07-19 15:00:00,
2013-07-19 12:00:00,89.0,73.0,29.91,WSW,243,7.0,-999.0,60,-99.99,,,-99.99,769.200012,,2013-07-19 16:00:00,
2013-07-19 14:00:00,89.0,72.0,29.87,SW,232,8.0,-999.0,57,-99.99,,,-99.99,688.500000,,2013-07-19 18:00:00,
2013-07-19 15:00:00,91.0,71.0,29.85,WSW,237,8.0,-999.0,53,-99.99,,,-99.99,745.000000,,2013-07-19 19:00:00,
2013-07-19 16:00:00,90.0,69.0,29.83,WSW,240,9.0,-999.0,50,-99.99,,,-99.99,716.099976,,2013-07-19 20:00:00,
2013-07-19 18:00:00,90.0,68.0,29.81,SW,235,8.0,-999.0,49,-99.99,,,-99.99,426.500000,,2013-07-19 22:00:00,
2013-07-19 19:00:00,89.0,69.0,29.81,SW,232,7.0,-999.0,53,-99.99,,,-99.99,263.600006,,2013-07-19 23:00:00,
2013-07-19 19:52:00,89.0,69.0,29.81,SW,232,7.0,-999.0,53,-99.99,,,-99.99,263.600006,,2013-07-19 23:52:00,
2013-07-19 20:00:00,86.0,69.0,29.86,SW,231,5.0,-999.0,57,-99.99,,,-99.99,109.500000,,2013-07-20 00:00:00,
2013-07-19 20:52:00,86.0,69.0,29.86,SW,231,5.0,-999.0,57,-99.99,,,-99.99,109.500000,,2013-07-20 00:52:00,
2013-07-19 22:00:00,71.0,68.0,29.85,WNW,288,8.0,-999.0,89,-99.99,,,-99.99,0.000000,,2013-07-20 02:00:00,
2013-07-19 23:00:00,71.0,67.0,29.82,WSW,257,6.0,-999.0,86,-99.99,,,-99.99,0.000000,,2013-07-20 03:00:00,